16:37
Airports
Links
Donate
Help keep this website running!
PayPal
Bitcoin
METAR
DNKN 231600Z 30004KT 9999 BKN014 32/22 Q1012 NOSIG
Current Weather Conditions at DNKN
MVFR 16:00:00 23-09-17
Altimeter:29.88 hg
Temp:32.0°c 90°f
Dew point:22.0°c 72°f
Wind:4 knots, 4.6 mph, 2 m/s, from 300°
Visibility:6.21 statute miles
1400(BKN) Broken
No significant weather changes expected within 2 hours.
Past METAR reports
MVFR 14:00:00 23-09-17
Altimeter:29.91 hg
Temp:33.0°c 91°f
Dew point:23.0°c 73°f
Wind:5 knots, 5.8 mph, 3 m/s, from 320°
Visibility:6.21 statute miles
1400(BKN) Broken
No significant weather changes expected within 2 hours.
DNKN 231400Z 32005KT 9999 BKN014 33/23 Q1013 NOSIG
MVFR 13:00:00 23-09-17
Altimeter:29.94 hg
Temp:32.0°c 90°f
Dew point:23.0°c 73°f
Wind:7 knots, 8.1 mph, 4 m/s, from 290°
Visibility:6.21 statute miles
1400(BKN) Broken
No significant weather changes expected within 2 hours.
DNKN 231300Z 29007KT 9999 BKN014 32/23 Q1014 NOSIG
MVFR 12:00:00 23-09-17
Altimeter:29.97 hg
Temp:32.0°c 90°f
Dew point:24.0°c 75°f
Wind:4 knots, 4.6 mph, 2 m/s, from 280°
Visibility:6.21 statute miles
1400(BKN) Broken
No significant weather changes expected within 2 hours.
DNKN 231200Z 28004KT 9999 NIL BKN014 32/24 Q1015 NOSIG
VFR 11:00:00 23-09-17
Altimeter:30.00 hg
Temp:31.0°c 88°f
Dew point:23.0°c 73°f
Wind:6 knots, 6.9 mph, 3 m/s, from 320°
Visibility:6.21 statute miles
1300(SCT) Scattered
No significant weather changes expected within 2 hours.
DNKN 231100Z 32006KT 9999 NIL SCT013 31/23 Q1016 NOSIG
TAF
TAF DNKN 230950Z 2312/2418 25010KT CAVOK TEMPO 2312/2318 BKN013 TEMPO 2318/2323 TS FEW020CB
Forecast at DNKN
12:00 23-09-17 to 18:00 24-09-17
NSW
Wind:10 Knots from 250°
Visibility:6.21 statute miles
NSC
TEMPO 12:00 23-09-17 to 18:00 23-09-17
1300BKN Broken
TEMPO 18:00 23-09-17 to 23:00 23-09-17
TS
2000FEW A few